Yalta, Ukraine
Current Conditions -  °F | °C
As of 8:30 AM on Saturday 20 Dec 2014 (Local Time) from URFF Reporting Station
Haze Haze  
Wind Chill: 36°   Ceiling: 2400
Heat Index: 43°   Visibility: 2.9mi
Dew Point: 39°   Wind: 13mph
Humidity: 87%   Direction: 180°S
Pressure: 30.03"   Gusts: NA
Location:  45.48°N, 34.17°E
Report Text: URFF 200530Z 18006MPS 4700 BR BKN024 06/04 Q1017 19150060NOSIG
Loading
Personal Weather Stations






























Interactive Weather Map New forecast layout! Learn more

10-Day Weather Forecast

Advertisements
Track Severe Weather on mobile